Phoenix, Arizona
Traffic Map
Current Weather Conditions
Phoenix, Arizona
Few Clouds
Few Clouds
104°
Feels Like: 104°
Wind Chill: 104° Ceiling: Unl
Heat Index: 104° Visibility: 10mi
Dew Point: 58° Wind: 12mph
Humidity: 22% Direction: 240° (WSW)
Pressure: 29.84in Gusts: 25mph
Raw Report DataKPHX 022051Z 24010G22KT 10SM FEW100 40/14 A2984 RMK AO2 SLP081 T04000144 58022
Traffic Incident Summary
Active as of:
Severity:
Category:
InformationThere was an issue retrieving the traffic information for this location. Please try a different location or try again shortly.
Advertisements
Track Severe Weather on mobile